createdAt,value
2017-07-14T00:00:49.430Z,65.00
2017-07-14T00:03:16.884Z,65.00
2017-07-14T00:05:44.363Z,65.10
2017-07-14T00:08:11.818Z,65.20
2017-07-14T00:10:39.295Z,65.30
2017-07-14T00:13:06.730Z,65.30
2017-07-14T00:15:34.167Z,65.40
2017-07-14T00:18:01.655Z,65.60
2017-07-14T00:20:29.102Z,65.40
2017-07-14T00:22:56.548Z,65.20
2017-07-14T00:25:24.601Z,65.20
2017-07-14T00:27:52.046Z,65.30
2017-07-14T00:30:19.903Z,65.70
2017-07-14T00:32:47.371Z,65.70
2017-07-14T00:35:14.865Z,65.90
2017-07-14T00:37:42.307Z,66.10
2017-07-14T00:40:09.752Z,66.20
2017-07-14T00:42:37.233Z,66.10
2017-07-14T00:45:04.691Z,66.10
2017-07-14T00:47:32.139Z,66.20
2017-07-14T00:49:59.623Z,66.40
2017-07-14T00:52:27.075Z,66.60
2017-07-14T00:54:54.965Z,66.40
2017-07-14T00:57:22.453Z,66.40
2017-07-14T00:59:49.951Z,66.60
2017-07-14T01:02:17.836Z,66.10
2017-07-14T01:04:46.295Z,66.40
2017-07-14T01:07:13.963Z,66.60
2017-07-14T01:09:41.413Z,66.70
2017-07-14T01:12:08.866Z,66.90
2017-07-14T01:14:36.347Z,66.80
2017-07-14T01:17:04.159Z,66.90
2017-07-14T01:19:31.617Z,66.90
2017-07-14T01:21:59.110Z,66.70
2017-07-14T01:24:26.593Z,66.70
2017-07-14T01:26:54.043Z,66.80
2017-07-14T01:29:21.520Z,66.70
2017-07-14T01:31:49.605Z,67.00
2017-07-14T01:34:17.066Z,67.00
2017-07-14T01:36:44.551Z,67.10
2017-07-14T01:39:12.800Z,66.80
2017-07-14T01:41:40.997Z,67.00
2017-07-14T01:44:08.446Z,67.00
2017-07-14T01:46:35.896Z,66.90
2017-07-14T01:49:03.372Z,67.30
2017-07-14T01:51:30.822Z,67.50
2017-07-14T01:53:58.278Z,67.60
2017-07-14T01:56:25.751Z,67.70
2017-07-14T01:58:53.208Z,68.00
2017-07-14T02:01:20.685Z,68.10
2017-07-14T02:03:48.120Z,68.00
2017-07-14T02:06:15.571Z,67.90
2017-07-14T02:08:43.441Z,68.00
2017-07-14T02:11:11.284Z,68.10
2017-07-14T02:13:38.742Z,68.10
2017-07-14T02:16:06.225Z,68.20
2017-07-14T02:18:34.070Z,68.30
2017-07-14T02:21:01.697Z,68.30
2017-07-14T02:23:29.170Z,68.50
2017-07-14T02:25:56.633Z,68.50
2017-07-14T02:28:24.373Z,68.60
2017-07-14T02:30:52.245Z,68.80
2017-07-14T02:33:19.685Z,68.80
2017-07-14T02:35:47.256Z,69.20
2017-07-14T02:38:14.748Z,69.30
2017-07-14T02:40:42.386Z,69.30
2017-07-14T02:43:09.834Z,69.30
2017-07-14T02:45:37.277Z,69.40
2017-07-14T02:48:04.761Z,69.40
2017-07-14T02:50:32.205Z,69.40
2017-07-14T02:52:59.664Z,69.60
2017-07-14T02:55:27.169Z,69.60
2017-07-14T02:57:54.630Z,69.70
2017-07-14T03:00:22.937Z,69.60
2017-07-14T03:02:51.065Z,69.60
2017-07-14T03:05:18.560Z,69.70
2017-07-14T03:07:46.413Z,70.00
2017-07-14T03:10:13.861Z,70.00
2017-07-14T03:12:41.488Z,69.80
2017-07-14T03:15:08.925Z,69.80
2017-07-14T03:17:36.401Z,69.70
2017-07-14T03:20:03.918Z,69.90
2017-07-14T03:22:31.376Z,69.90
2017-07-14T03:24:58.836Z,70.00
2017-07-14T03:27:26.334Z,69.90
2017-07-14T03:29:53.990Z,70.00
2017-07-14T03:32:22.310Z,70.10
2017-07-14T03:34:49.780Z,70.00
2017-07-14T03:37:17.241Z,70.00
2017-07-14T03:39:44.713Z,70.00
2017-07-14T03:42:12.195Z,70.10
2017-07-14T03:44:39.731Z,70.10
2017-07-14T03:47:07.232Z,70.20
2017-07-14T03:49:34.668Z,70.30
2017-07-14T03:52:02.179Z,70.10
2017-07-14T03:54:29.637Z,70.00
2017-07-14T03:56:57.482Z,70.20
2017-07-14T03:59:24.962Z,70.20
2017-07-14T04:01:52.999Z,70.20
2017-07-14T04:04:20.452Z,70.20
2017-07-14T04:06:47.914Z,70.10
2017-07-14T04:09:15.395Z,70.40
2017-07-14T04:11:42.843Z,70.40
2017-07-14T04:14:10.285Z,70.30
2017-07-14T04:16:37.756Z,70.20
2017-07-14T04:19:05.344Z,70.30
2017-07-14T04:21:32.799Z,70.40
2017-07-14T04:24:00.280Z,70.50
2017-07-14T04:26:27.789Z,70.70
2017-07-14T04:28:55.248Z,70.40
2017-07-14T04:31:23.089Z,70.40
2017-07-14T04:33:50.548Z,70.40
2017-07-14T04:36:18.040Z,70.40
2017-07-14T04:38:45.545Z,70.30
2017-07-14T04:41:12.989Z,70.00
2017-07-14T04:43:40.435Z,70.00
2017-07-14T04:46:07.927Z,70.00
2017-07-14T04:48:35.365Z,70.10
2017-07-14T04:51:03.216Z,70.40
2017-07-14T04:53:30.705Z,70.40
2017-07-14T04:55:58.157Z,70.50
2017-07-14T04:58:25.993Z,70.10
2017-07-14T05:00:53.494Z,70.10
2017-07-14T05:03:21.984Z,69.90
2017-07-14T05:05:49.464Z,69.90
2017-07-14T05:08:17.407Z,69.80
2017-07-14T05:10:44.880Z,69.80
2017-07-14T05:13:12.380Z,69.70
2017-07-14T05:15:39.836Z,68.60
2017-07-14T05:18:07.288Z,68.40
2017-07-14T05:20:34.785Z,68.20
2017-07-14T05:23:02.241Z,68.30
2017-07-14T05:25:29.685Z,68.40
2017-07-14T05:27:57.181Z,68.20
2017-07-14T05:30:24.630Z,68.30
2017-07-14T05:32:52.096Z,68.20
2017-07-14T05:35:19.556Z,68.20
2017-07-14T05:37:47.001Z,68.10
2017-07-14T05:40:14.476Z,68.20
2017-07-14T05:42:41.924Z,68.10
2017-07-14T05:45:09.570Z,68.20
2017-07-14T05:47:37.022Z,68.10
2017-07-14T05:50:05.697Z,68.80
2017-07-14T05:52:33.596Z,69.00
2017-07-14T05:55:01.049Z,69.00
2017-07-14T05:57:28.897Z,69.50
2017-07-14T05:59:56.381Z,69.50
2017-07-14T06:02:23.831Z,69.90
2017-07-14T06:04:51.296Z,69.30
2017-07-14T06:07:18.790Z,69.20
2017-07-14T06:09:46.281Z,69.10
2017-07-14T06:12:13.730Z,69.50
2017-07-14T06:14:41.202Z,69.80
2017-07-14T06:17:09.613Z,69.70
2017-07-14T06:19:37.070Z,69.70
2017-07-14T06:22:04.512Z,69.50
2017-07-14T06:24:31.985Z,69.50
2017-07-14T06:26:59.429Z,69.50
2017-07-14T06:29:26.940Z,69.50
2017-07-14T06:31:54.380Z,69.30
2017-07-14T06:34:21.830Z,69.20
2017-07-14T06:36:49.506Z,69.20
2017-07-14T06:39:16.951Z,69.20
2017-07-14T06:41:45.185Z,69.30
2017-07-14T06:44:12.689Z,69.10
2017-07-14T06:46:40.147Z,68.70
2017-07-14T06:49:07.612Z,67.90
2017-07-14T06:51:35.250Z,67.80
2017-07-14T06:54:03.084Z,66.90
2017-07-14T06:56:30.533Z,66.90
2017-07-14T06:58:57.994Z,66.90
2017-07-14T07:01:25.438Z,66.80
2017-07-14T07:03:52.940Z,66.00
2017-07-14T07:06:20.392Z,65.20
2017-07-14T07:08:47.838Z,64.50
2017-07-14T07:11:15.352Z,64.40
2017-07-14T07:13:42.798Z,64.90
2017-07-14T07:16:10.238Z,65.50
2017-07-14T07:18:37.706Z,64.90
2017-07-14T07:21:05.235Z,64.70
2017-07-14T07:23:32.663Z,64.60
2017-07-14T07:26:00.101Z,64.90
2017-07-14T07:28:27.578Z,64.80
2017-07-14T07:30:55.040Z,64.90
2017-07-14T07:33:22.482Z,64.30
2017-07-14T07:35:50.135Z,63.10
2017-07-14T07:38:17.591Z,63.20
2017-07-14T07:40:45.047Z,62.60
2017-07-14T07:43:13.073Z,62.50
2017-07-14T07:45:40.919Z,61.40
2017-07-14T07:48:14.827Z,61.40
2017-07-14T07:50:42.286Z,60.90
2017-07-14T07:53:09.740Z,61.00
2017-07-14T07:55:37.220Z,60.00
2017-07-14T07:58:04.669Z,59.40
2017-07-14T08:00:32.163Z,59.10
2017-07-14T08:03:05.339Z,59.80
2017-07-14T08:05:32.987Z,59.20
2017-07-14T08:08:00.452Z,59.20
2017-07-14T08:10:27.909Z,58.70
2017-07-14T08:12:55.417Z,58.70
2017-07-14T08:15:23.271Z,57.80
2017-07-14T08:17:50.771Z,57.80
2017-07-14T08:20:18.282Z,56.90
2017-07-14T08:22:45.738Z,56.60
2017-07-14T08:25:14.018Z,56.30
2017-07-14T08:27:41.468Z,56.30
2017-07-14T08:30:08.927Z,56.30
2017-07-14T08:32:36.397Z,57.00
2017-07-14T08:35:03.869Z,57.30
2017-07-14T08:37:31.327Z,56.70
2017-07-14T08:39:58.793Z,57.10
2017-07-14T08:42:26.459Z,57.30
2017-07-14T08:44:53.913Z,57.10
2017-07-14T08:47:21.371Z,57.50
2017-07-14T08:49:49.365Z,57.70
2017-07-14T08:52:16.836Z,57.90
2017-07-14T08:54:44.329Z,57.90
2017-07-14T08:57:11.766Z,58.70
2017-07-14T08:59:39.205Z,56.90
2017-07-14T09:02:07.233Z,57.30
2017-07-14T09:04:35.705Z,57.00
2017-07-14T09:07:03.905Z,57.00
2017-07-14T09:09:31.412Z,57.00
2017-07-14T09:11:58.880Z,57.30
2017-07-14T09:14:26.352Z,57.30
2017-07-14T09:16:53.853Z,57.10
2017-07-14T09:19:21.719Z,56.50
2017-07-14T09:21:49.581Z,56.80
2017-07-14T09:24:17.204Z,56.80
2017-07-14T09:26:44.648Z,56.90
2017-07-14T09:29:12.083Z,57.10
2017-07-14T09:31:39.961Z,57.90
2017-07-14T09:34:07.406Z,57.90
2017-07-14T09:36:34.850Z,58.10
2017-07-14T09:39:02.310Z,58.00
2017-07-14T09:41:29.797Z,58.10
2017-07-14T09:43:57.243Z,57.30
2017-07-14T09:46:24.697Z,57.60
2017-07-14T09:48:52.321Z,57.80
2017-07-14T09:51:20.349Z,57.00
2017-07-14T09:53:47.807Z,56.80
2017-07-14T09:56:15.288Z,56.40
2017-07-14T09:58:43.152Z,56.40
2017-07-14T10:01:10.604Z,56.40
2017-07-14T10:03:38.082Z,56.80
2017-07-14T10:06:06.761Z,56.40
2017-07-14T10:08:34.200Z,56.50
2017-07-14T10:11:02.599Z,55.70
2017-07-14T10:13:30.081Z,55.80
2017-07-14T10:15:57.930Z,54.00
2017-07-14T10:18:25.435Z,54.00
2017-07-14T10:20:53.635Z,53.70
2017-07-14T10:23:21.080Z,53.70
2017-07-14T10:25:48.584Z,54.50
2017-07-14T10:28:16.076Z,53.90
2017-07-14T10:30:43.559Z,54.40
2017-07-14T10:33:11.438Z,54.70
2017-07-14T10:35:38.939Z,54.70
2017-07-14T10:38:06.477Z,54.90
2017-07-14T10:40:34.737Z,54.50
2017-07-14T10:43:02.260Z,54.70
2017-07-14T10:45:29.936Z,55.80
2017-07-14T10:47:57.404Z,55.30
2017-07-14T10:50:24.874Z,55.30
2017-07-14T10:52:52.514Z,56.00
2017-07-14T10:55:19.954Z,56.00
2017-07-14T10:57:47.403Z,54.70
2017-07-14T11:00:14.923Z,54.50
2017-07-14T11:02:42.385Z,54.50
2017-07-14T11:05:09.849Z,53.60
2017-07-14T11:07:37.351Z,53.40
2017-07-14T11:10:05.241Z,52.30
2017-07-14T11:12:32.744Z,52.30
2017-07-14T11:15:00.299Z,52.30
2017-07-14T11:17:29.459Z,53.10
2017-07-14T11:19:56.959Z,51.60
2017-07-14T11:22:25.883Z,51.30
2017-07-14T11:24:53.589Z,50.90
2017-07-14T11:27:21.765Z,50.40
2017-07-14T11:29:49.384Z,50.30
2017-07-14T11:32:16.913Z,51.20
2017-07-14T11:34:44.369Z,49.60
2017-07-14T11:37:12.110Z,49.60
2017-07-14T11:39:40.045Z,49.70
2017-07-14T11:42:07.593Z,49.70
2017-07-14T11:44:35.321Z,49.60
2017-07-14T11:47:02.851Z,50.40
2017-07-14T11:49:30.385Z,49.20
2017-07-14T11:51:57.946Z,50.60
2017-07-14T11:54:25.472Z,49.90
2017-07-14T11:56:53.381Z,49.60
2017-07-14T11:59:20.923Z,49.60
2017-07-14T12:01:48.378Z,49.00
2017-07-14T12:04:15.911Z,47.70
2017-07-14T12:06:47.206Z,47.70
2017-07-14T12:09:14.687Z,47.70
2017-07-14T12:11:42.202Z,46.90
2017-07-14T12:14:11.225Z,47.90
2017-07-14T12:16:39.168Z,47.70
2017-07-14T12:19:06.903Z,47.70
2017-07-14T12:21:34.519Z,47.10
2017-07-14T12:24:02.942Z,47.70
2017-07-14T12:26:30.493Z,47.70
2017-07-14T12:28:57.972Z,47.60
2017-07-14T12:31:25.459Z,47.90
2017-07-14T12:33:52.974Z,47.20
2017-07-14T12:36:20.417Z,47.60
2017-07-14T12:38:48.479Z,46.10
2017-07-14T12:41:16.091Z,46.80
2017-07-14T12:43:44.280Z,46.20
2017-07-14T12:46:12.132Z,46.70
2017-07-14T12:48:39.632Z,45.80
2017-07-14T12:51:07.305Z,46.00
2017-07-14T12:53:34.768Z,46.20
2017-07-14T12:56:02.254Z,45.60
2017-07-14T12:58:29.720Z,46.00
2017-07-14T13:00:57.178Z,46.10
2017-07-14T13:03:25.178Z,45.50
2017-07-14T13:05:52.802Z,45.50
2017-07-14T13:08:21.091Z,45.50
2017-07-14T13:10:49.340Z,44.30
2017-07-14T13:13:16.877Z,44.90
2017-07-14T13:15:44.482Z,46.20
2017-07-14T13:18:13.053Z,45.80
2017-07-14T13:20:40.511Z,45.80
2017-07-14T13:23:08.078Z,46.00
2017-07-14T13:25:35.641Z,44.90
2017-07-14T13:28:03.279Z,45.20
2017-07-14T13:30:30.830Z,45.50
2017-07-14T13:32:58.869Z,44.80
2017-07-14T13:35:26.355Z,44.80
2017-07-14T13:37:53.831Z,45.20
2017-07-14T13:40:21.315Z,44.90
2017-07-14T13:42:48.978Z,44.80
2017-07-14T13:45:17.045Z,44.30
2017-07-14T13:47:45.016Z,44.80
2017-07-14T13:50:14.443Z,44.80
2017-07-14T13:52:42.355Z,43.80
2017-07-14T13:55:11.411Z,44.10
2017-07-14T13:57:40.507Z,45.10
2017-07-14T14:00:10.070Z,45.10
2017-07-14T14:02:39.803Z,45.10
2017-07-14T14:05:07.454Z,44.80
2017-07-14T14:07:35.673Z,43.70
2017-07-14T14:10:11.517Z,44.10
2017-07-14T14:12:45.694Z,44.80
2017-07-14T14:15:13.215Z,44.80
2017-07-14T14:17:48.898Z,45.00
2017-07-14T14:20:16.657Z,45.40
2017-07-14T14:22:45.315Z,45.60
2017-07-14T14:25:14.801Z,45.20
2017-07-14T14:27:43.397Z,45.20
2017-07-14T14:30:11.262Z,46.10
2017-07-14T14:32:38.729Z,46.10
2017-07-14T14:35:06.329Z,45.60
2017-07-14T14:37:34.201Z,46.00
2017-07-14T14:40:01.858Z,45.80
2017-07-14T14:42:30.556Z,45.80
2017-07-14T14:44:59.945Z,45.80
2017-07-14T14:47:30.005Z,45.50
2017-07-14T14:49:57.516Z,45.50
2017-07-14T14:52:25.114Z,45.70
2017-07-14T14:54:52.570Z,45.80
2017-07-14T14:57:20.202Z,46.90
2017-07-14T14:59:47.828Z,46.40
2017-07-14T15:02:15.289Z,45.30
2017-07-14T15:04:42.748Z,46.20
2017-07-14T15:07:10.234Z,45.50
2017-07-14T15:09:37.694Z,46.20
2017-07-14T15:12:05.136Z,45.70
2017-07-14T15:14:32.644Z,46.20
2017-07-14T15:17:00.091Z,45.50
2017-07-14T15:19:27.581Z,45.80
2017-07-14T15:21:55.459Z,46.20
2017-07-14T15:24:22.917Z,46.20
2017-07-14T15:26:50.443Z,46.40
2017-07-14T15:29:17.928Z,45.80
2017-07-14T15:31:45.388Z,45.80
2017-07-14T15:34:12.858Z,45.70
2017-07-14T15:36:42.367Z,46.00
2017-07-14T15:39:09.912Z,45.80
2017-07-14T15:41:37.408Z,45.60
2017-07-14T15:44:05.276Z,46.60
2017-07-14T15:46:33.697Z,46.60
2017-07-14T15:49:01.540Z,45.60
2017-07-14T15:51:29.422Z,45.30
2017-07-14T15:53:57.355Z,45.40
2017-07-14T15:56:24.891Z,45.40
2017-07-14T15:58:52.365Z,44.60
2017-07-14T16:01:19.888Z,45.90
2017-07-14T16:03:47.727Z,44.80
2017-07-14T16:06:15.414Z,44.80
2017-07-14T16:08:43.307Z,44.50
2017-07-14T16:11:10.798Z,44.50
2017-07-14T16:13:38.282Z,44.80
2017-07-14T16:16:06.225Z,44.30
2017-07-14T16:18:33.767Z,44.10
2017-07-14T16:21:01.634Z,43.50
2017-07-14T16:23:29.649Z,43.50
2017-07-14T16:25:57.400Z,43.50
2017-07-14T16:28:24.851Z,43.90
2017-07-14T16:30:52.597Z,43.40
2017-07-14T16:33:20.451Z,43.10
2017-07-14T16:35:47.953Z,43.10
2017-07-14T16:38:15.661Z,43.00
2017-07-14T16:40:43.151Z,43.10
2017-07-14T16:43:10.709Z,43.30
2017-07-14T16:45:38.439Z,43.70
2017-07-14T16:48:06.000Z,44.30
2017-07-14T16:50:33.467Z,43.70
2017-07-14T16:53:02.017Z,44.10
2017-07-14T16:55:29.487Z,44.20
2017-07-14T16:57:57.012Z,44.40
2017-07-14T17:00:25.332Z,45.00
2017-07-14T17:02:52.806Z,44.80
2017-07-14T17:05:23.303Z,44.50
2017-07-14T17:07:50.870Z,44.70
2017-07-14T17:10:18.314Z,45.10
2017-07-14T17:12:45.963Z,45.20
2017-07-14T17:15:13.493Z,45.50
2017-07-14T17:17:41.013Z,46.50
2017-07-14T17:20:08.770Z,49.60
2017-07-14T17:22:36.319Z,54.10
2017-07-14T17:25:04.236Z,56.50
2017-07-14T17:27:31.780Z,59.10
2017-07-14T17:29:59.365Z,61.30
2017-07-14T17:32:26.812Z,64.20
2017-07-14T17:34:57.246Z,65.30
2017-07-14T17:37:25.195Z,67.20
2017-07-14T17:39:53.613Z,68.20
2017-07-14T17:42:21.592Z,69.00
2017-07-14T17:44:49.048Z,68.90
2017-07-14T17:47:17.027Z,70.20
2017-07-14T17:49:44.505Z,70.20
2017-07-14T17:52:12.543Z,71.30
2017-07-14T17:54:40.039Z,71.30
2017-07-14T17:57:07.484Z,71.40
2017-07-14T17:59:35.003Z,71.50
2017-07-14T18:02:03.122Z,71.30
2017-07-14T18:04:30.638Z,71.20
2017-07-14T18:06:58.086Z,72.20
2017-07-14T18:09:25.572Z,72.10
2017-07-14T18:11:53.064Z,72.40
2017-07-14T18:14:21.305Z,72.00
2017-07-14T18:16:49.671Z,72.10
2017-07-14T18:19:17.781Z,70.80
2017-07-14T18:21:45.337Z,70.80
2017-07-14T18:24:12.801Z,71.40
2017-07-14T18:26:40.269Z,71.40
2017-07-14T18:29:07.737Z,71.30
2017-07-14T18:31:35.264Z,71.70
2017-07-14T18:34:02.750Z,71.90
2017-07-14T18:36:32.602Z,71.70
2017-07-14T18:39:00.090Z,71.50
2017-07-14T18:41:27.560Z,71.30
2017-07-14T18:43:55.456Z,71.30
2017-07-14T18:46:22.901Z,71.30
2017-07-14T18:48:50.573Z,72.40
2017-07-14T18:51:18.034Z,71.70
2017-07-14T18:53:45.519Z,71.90
2017-07-14T18:56:13.106Z,72.80
2017-07-14T18:58:40.599Z,72.40
2017-07-14T19:01:08.179Z,71.70
2017-07-14T19:03:35.651Z,71.80
2017-07-14T19:06:03.166Z,71.50
2017-07-14T19:08:30.703Z,71.70
2017-07-14T19:10:59.344Z,71.50
2017-07-14T19:13:26.911Z,72.20
2017-07-14T19:15:54.387Z,72.20
2017-07-14T19:18:23.382Z,71.90
2017-07-14T19:20:50.884Z,71.90
2017-07-14T19:23:18.335Z,72.30
2017-07-14T19:25:45.813Z,72.50
2017-07-14T19:28:13.449Z,72.20
2017-07-14T19:30:41.314Z,72.50
2017-07-14T19:33:09.179Z,72.90
2017-07-14T19:35:37.072Z,73.00
2017-07-14T19:38:04.543Z,73.00
2017-07-14T19:40:32.025Z,72.80
2017-07-14T19:43:00.040Z,72.90
2017-07-14T19:45:27.512Z,72.80
2017-07-14T19:47:54.975Z,72.80
2017-07-14T19:50:22.850Z,72.30
2017-07-14T19:52:50.718Z,71.50
2017-07-14T19:55:18.286Z,71.50
2017-07-14T19:57:45.840Z,72.00
2017-07-14T20:00:13.349Z,72.00
2017-07-14T20:02:40.799Z,71.90
2017-07-14T20:05:08.442Z,71.60
2017-07-14T20:07:35.904Z,71.60
2017-07-14T20:10:03.352Z,71.50
2017-07-14T20:12:30.988Z,70.60
2017-07-14T20:14:58.496Z,70.10
2017-07-14T20:17:26.037Z,70.80
2017-07-14T20:19:53.570Z,70.80
2017-07-14T20:22:21.033Z,71.80
2017-07-14T20:24:48.489Z,71.60
2017-07-14T20:27:15.957Z,71.50
2017-07-14T20:29:43.477Z,70.90
2017-07-14T20:32:11.043Z,71.20
2017-07-14T20:34:38.548Z,71.20
2017-07-14T20:37:06.006Z,71.00
2017-07-14T20:39:33.470Z,69.20
2017-07-14T20:42:00.942Z,68.90
2017-07-14T20:44:28.396Z,68.90
2017-07-14T20:46:55.896Z,69.00
2017-07-14T20:49:23.372Z,68.50
2017-07-14T20:51:50.868Z,68.80
2017-07-14T20:54:18.663Z,67.80
2017-07-14T20:56:47.077Z,68.30
2017-07-14T20:59:14.600Z,68.70
2017-07-14T21:01:42.047Z,68.70
2017-07-14T21:04:09.526Z,69.00
2017-07-14T21:06:37.028Z,69.10
2017-07-14T21:09:04.501Z,69.10
2017-07-14T21:11:31.988Z,69.10
2017-07-14T21:13:59.860Z,68.80
2017-07-14T21:16:29.652Z,69.00
2017-07-14T21:18:57.144Z,69.00
2017-07-14T21:21:24.611Z,69.20
2017-07-14T21:23:52.060Z,69.40
2017-07-14T21:26:19.928Z,69.30
2017-07-14T21:28:47.430Z,69.30
2017-07-14T21:31:14.905Z,68.70
2017-07-14T21:33:42.370Z,68.40
2017-07-14T21:36:18.877Z,68.20
2017-07-14T21:38:46.338Z,67.90
2017-07-14T21:41:13.805Z,68.50
2017-07-14T21:43:41.325Z,68.20
2017-07-14T21:46:09.465Z,68.40
2017-07-14T21:48:36.910Z,68.80
2017-07-14T21:51:04.400Z,68.70
2017-07-14T21:53:31.921Z,68.80
2017-07-14T21:55:59.383Z,69.10
2017-07-14T21:58:26.840Z,69.10
2017-07-14T22:00:55.204Z,69.10
2017-07-14T22:03:22.701Z,69.50
2017-07-14T22:05:50.181Z,69.80
2017-07-14T22:08:18.032Z,70.10
2017-07-14T22:10:45.507Z,70.10
2017-07-14T22:13:13.586Z,69.80
2017-07-14T22:15:41.066Z,69.80
2017-07-14T22:18:08.521Z,70.10
2017-07-14T22:20:36.171Z,70.20
2017-07-14T22:23:03.628Z,70.20
2017-07-14T22:25:31.150Z,70.30
2017-07-14T22:27:58.643Z,70.20
2017-07-14T22:30:26.109Z,70.30
2017-07-14T22:32:53.558Z,70.60
2017-07-14T22:35:21.177Z,70.60
2017-07-14T22:37:48.673Z,70.70
2017-07-14T22:40:16.123Z,70.70
2017-07-14T22:42:43.632Z,70.70
2017-07-14T22:45:11.093Z,70.70
2017-07-14T22:47:38.549Z,70.60
2017-07-14T22:50:06.021Z,70.40
2017-07-14T22:52:34.096Z,70.70
2017-07-14T22:55:01.561Z,70.50
2017-07-14T22:57:29.035Z,70.40
2017-07-14T22:59:56.480Z,70.40
2017-07-14T23:02:23.976Z,70.70
2017-07-14T23:04:51.823Z,70.50
2017-07-14T23:07:19.316Z,70.50
2017-07-14T23:09:46.844Z,70.70
2017-07-14T23:12:14.309Z,70.80
2017-07-14T23:14:41.776Z,71.00
2017-07-14T23:17:09.277Z,71.30
2017-07-14T23:19:36.749Z,71.40
2017-07-14T23:22:04.193Z,71.50
2017-07-14T23:24:31.692Z,71.20
2017-07-14T23:26:59.150Z,71.10
2017-07-14T23:29:26.605Z,71.10
2017-07-14T23:31:54.120Z,71.00
2017-07-14T23:34:21.579Z,71.00
2017-07-14T23:36:49.020Z,71.20
2017-07-14T23:39:16.495Z,71.40
2017-07-14T23:41:43.963Z,71.30
2017-07-14T23:44:11.417Z,71.80
2017-07-14T23:46:38.922Z,72.10
2017-07-14T23:49:06.381Z,72.20
2017-07-14T23:51:33.824Z,72.10
2017-07-14T23:54:01.300Z,72.20
2017-07-14T23:56:29.175Z,71.90
2017-07-14T23:58:57.077Z,71.80
